Weather reports worldwide

Advertisment
Elphin, United Kingdom (99153): temperature & dewpoint: 12.07.2018 18:00:00 - 18.07.2018 18:00:00 (BST)Elphin, United Kingdom (99153): precipitation: 12.07.2018 18:00:00 - 18.07.2018 18:00:00 (BST)
Date & Time tt [°C] td [°C] rr [mm]
18.07.2018 18:00:00 15,7 7,7 0,0
18.07.2018 17:00:00 15,6 8,2 0,0
18.07.2018 16:00:00 15,9 8,3 0,0
18.07.2018 15:00:00 15,3 8,1 0,0
18.07.2018 14:00:00 15,3 9,0 0,0
18.07.2018 13:00:00 15,1 9,4 0,0
18.07.2018 12:00:00 14,8 10,2 0,0
18.07.2018 11:00:00 14,2 10,1 0,0
18.07.2018 10:00:00 13,0 10,4 0,0
18.07.2018 09:00:00 12,9 9,4 0,0
18.07.2018 08:00:00 11,9 10,2 0,0
18.07.2018 07:00:00 11,2 9,9 0,0
18.07.2018 06:00:00 10,4 9,9 0,2
18.07.2018 05:00:00 9,9 9,3 0,0
18.07.2018 04:00:00 9,9 9,2 0,0
18.07.2018 03:00:00 10,6 10,1 0,0
18.07.2018 02:00:00 10,7 9,8 0,4
18.07.2018 01:00:00 10,9 9,9 0,2
18.07.2018 00:00:00 10,9 9,6 0,0
17.07.2018 23:00:00 11,7 8,9 0,0
17.07.2018 22:00:00 12,2 8,7 0,0
17.07.2018 21:00:00 12,5 9,9 0,0
17.07.2018 20:00:00 13,0 9,5 0,0
17.07.2018 19:00:00 13,9 8,8 0,0
17.07.2018 18:00:00 14,8 9,3 0,0
17.07.2018 17:00:00 14,6 10,2 0,0
17.07.2018 16:00:00 15,5 9,4 0,0
17.07.2018 15:00:00 16,0 9,7 0,0
17.07.2018 14:00:00 16,2 11,9 0,0
17.07.2018 13:00:00 13,5 10,3 0,0
17.07.2018 12:00:00 12,8 10,7 0,6
17.07.2018 11:00:00 12,7 11,0 0,2
17.07.2018 10:00:00 14,6 10,9 0,0
17.07.2018 09:00:00 13,8 11,0 0,0
17.07.2018 08:00:00 12,8 11,1 0,0
17.07.2018 07:00:00 11,9 11,2 0,0
17.07.2018 06:00:00 11,5 10,8 0,2
17.07.2018 05:00:00 12,1 9,8 0,0
17.07.2018 04:00:00 11,7 10,0 0,0
17.07.2018 03:00:00 11,9 9,7 0,0
17.07.2018 02:00:00 12,4 9,2 0,0
17.07.2018 01:00:00 12,1 9,0 0,0
17.07.2018 00:00:00 12,6 9,8 0,0
16.07.2018 23:00:00 13,4 8,6 0,0
16.07.2018 22:00:00 13,7 8,9 0,0
16.07.2018 21:00:00 13,9 8,7 0,0
16.07.2018 20:00:00 14,2 9,6 0,0
16.07.2018 19:00:00 15,3 9,9 0,0
16.07.2018 18:00:00 15,4 10,3 0,0
16.07.2018 17:00:00 17,0 8,9 0,0
16.07.2018 16:00:00 16,8 9,6 0,0
16.07.2018 15:00:00 17,2 10,4 0,0
16.07.2018 14:00:00 16,6 10,1 0,0
16.07.2018 13:00:00 15,8 10,0 0,0
16.07.2018 12:00:00 15,9 9,9 0,0
16.07.2018 11:00:00 16,5 11,4 0,0
16.07.2018 10:00:00 15,6 10,4 0,0
16.07.2018 09:00:00 15,6 9,9 0,0
16.07.2018 08:00:00 14,9 10,1 0,0
16.07.2018 07:00:00 13,4 10,3 0,0
16.07.2018 06:00:00 11,9 10,5 0,0
16.07.2018 05:00:00 12,0 10,3 0,0
16.07.2018 04:00:00 12,0 10,5 0,2
16.07.2018 03:00:00 12,3 10,9 0,0
16.07.2018 02:00:00 12,7 11,2 0,0
16.07.2018 01:00:00 14,2 13,1 0,2
16.07.2018 00:00:00 16,4 14,9 0,0
15.07.2018 23:00:00 15,6 14,7 0,0
15.07.2018 22:00:00 16,3 15,6 0,0
15.07.2018 21:00:00 16,8 15,8 0,2
15.07.2018 20:00:00 17,2 15,8 0,0
15.07.2018 19:00:00 17,1 15,5 0,0
15.07.2018 18:00:00 17,8 15,6 0,0
15.07.2018 17:00:00 18,6 16,4 0,0
15.07.2018 16:00:00 18,2 16,2 0,0
15.07.2018 15:00:00 17,7 16,4 0,0
15.07.2018 14:00:00 18,1 16,0 0,0
15.07.2018 13:00:00 19,7 16,2 0,0
15.07.2018 12:00:00 19,1 15,4 0,0
15.07.2018 11:00:00 18,4 16,2 0,0
15.07.2018 10:00:00 17,5 16,8 1,6
15.07.2018 09:00:00 17,2 15,9 1,0
15.07.2018 08:00:00 16,9 15,8 0,4
15.07.2018 07:00:00 16,6 15,6 1,2
15.07.2018 06:00:00 15,9 15,3 0,6
15.07.2018 05:00:00 15,8 14,9 1,2
15.07.2018 04:00:00 16,6 15,1 0,6
15.07.2018 03:00:00 16,6 15,2 0,0
15.07.2018 02:00:00 16,4 15,2 0,0
15.07.2018 01:00:00 16,4 15,1 0,0
15.07.2018 00:00:00 16,6 14,8 0,2
14.07.2018 23:00:00 16,9 14,5 0,0
14.07.2018 22:00:00 17,0 14,5 0,0
14.07.2018 21:00:00 17,9 14,4 0,0
14.07.2018 20:00:00 18,3 14,3 0,0
14.07.2018 19:00:00 17,9 14,1 0,0
14.07.2018 18:00:00 17,9 14,0 0,0
14.07.2018 17:00:00 18,5 14,3 0,0
14.07.2018 16:00:00 18,7 14,1 0,0
14.07.2018 15:00:00 18,8 13,8 0,0
14.07.2018 14:00:00 18,2 13,0 0,0
14.07.2018 13:00:00 17,5 12,7 0,0
14.07.2018 12:00:00 17,7 11,8 0,0
14.07.2018 11:00:00 17,3 11,3 0,0
14.07.2018 10:00:00 17,7 11,6 0,0
14.07.2018 09:00:00 17,4 11,5 0,0
14.07.2018 08:00:00 15,7 11,8 0,0
14.07.2018 07:00:00 13,9 11,6 0,0
14.07.2018 06:00:00 - - 0,0
14.07.2018 05:00:00 - - 0,0
14.07.2018 04:00:00 - - 0,0
14.07.2018 03:00:00 - - 0,0
14.07.2018 02:00:00 - - 0,0
14.07.2018 01:00:00 - - 0,0
14.07.2018 00:00:00 - - -
13.07.2018 23:00:00 - - 0,0
13.07.2018 22:00:00 - - 0,0
13.07.2018 21:00:00 - - 0,0
13.07.2018 20:00:00 - - -
13.07.2018 19:00:00 - - 0,0
13.07.2018 18:00:00 - - -
13.07.2018 17:00:00 - - 0,0
13.07.2018 16:00:00 - - 0,0
13.07.2018 15:00:00 - - 0,0
13.07.2018 14:00:00 - - -
13.07.2018 13:00:00 - - 0,0
13.07.2018 12:00:00 - - 0,0
13.07.2018 11:00:00 - - -
13.07.2018 10:00:00 15,5 11,5 0,0
13.07.2018 09:00:00 15,5 12,5 0,0
13.07.2018 08:00:00 13,8 11,4 0,0
13.07.2018 07:00:00 12,9 11,1 0,0
13.07.2018 06:00:00 12,2 11,0 0,0
13.07.2018 05:00:00 11,7 10,6 0,0
13.07.2018 04:00:00 11,5 10,3 0,0
13.07.2018 03:00:00 12,4 10,9 0,0
13.07.2018 02:00:00 12,6 10,7 0,0
13.07.2018 01:00:00 12,8 10,9 0,0
13.07.2018 00:00:00 13,2 11,0 0,0
12.07.2018 23:00:00 13,9 11,7 0,0
12.07.2018 22:00:00 14,2 10,5 0,0
12.07.2018 21:00:00 15,1 9,6 0,0
12.07.2018 20:00:00 15,5 9,6 0,0
12.07.2018 19:00:00 16,1 10,5 0,0
12.07.2018 18:00:00 17,3 10,2 0,0

tt = temperature
td = dewpoint
rr = precipitation

Next stations